sensor_id;sensor_type;location;lat;lon;timestamp;P1;durP1;ratioP1;P2;durP2;ratioP2
46613;SDS011;32338;50.430;6.806;2023-03-01T00:01:52;7.30;;;5.35;;
46613;SDS011;32338;50.430;6.806;2023-03-01T00:04:19;7.85;;;6.05;;
46613;SDS011;32338;50.430;6.806;2023-03-01T00:06:47;7.90;;;5.72;;
46613;SDS011;32338;50.430;6.806;2023-03-01T00:09:13;11.57;;;6.28;;
46613;SDS011;32338;50.430;6.806;2023-03-01T00:11:41;9.52;;;6.40;;
46613;SDS011;32338;50.430;6.806;2023-03-01T00:14:08;9.82;;;6.00;;
46613;SDS011;32338;50.430;6.806;2023-03-01T00:16:35;8.05;;;5.68;;
46613;SDS011;32338;50.430;6.806;2023-03-01T00:19:04;10.25;;;7.32;;
46613;SDS011;32338;50.430;6.806;2023-03-01T00:21:32;12.30;;;7.28;;
46613;SDS011;32338;50.430;6.806;2023-03-01T00:24:01;7.13;;;6.10;;
46613;SDS011;32338;50.430;6.806;2023-03-01T00:26:29;7.47;;;5.93;;
46613;SDS011;32338;50.430;6.806;2023-03-01T00:28:56;14.48;;;5.60;;
46613;SDS011;32338;50.430;6.806;2023-03-01T00:31:24;7.03;;;4.93;;
46613;SDS011;32338;50.430;6.806;2023-03-01T00:33:54;8.32;;;5.20;;
46613;SDS011;32338;50.430;6.806;2023-03-01T00:36:23;10.00;;;5.32;;
46613;SDS011;32338;50.430;6.806;2023-03-01T00:38:51;6.72;;;5.43;;
46613;SDS011;32338;50.430;6.806;2023-03-01T00:41:19;8.82;;;5.68;;
46613;SDS011;32338;50.430;6.806;2023-03-01T00:43:47;9.65;;;6.20;;
46613;SDS011;32338;50.430;6.806;2023-03-01T00:46:15;6.57;;;4.72;;
46613;SDS011;32338;50.430;6.806;2023-03-01T00:48:44;9.75;;;5.88;;
46613;SDS011;32338;50.430;6.806;2023-03-01T00:51:12;10.38;;;5.53;;
46613;SDS011;32338;50.430;6.806;2023-03-01T00:53:40;9.48;;;6.05;;
46613;SDS011;32338;50.430;6.806;2023-03-01T00:56:08;10.02;;;6.32;;
46613;SDS011;32338;50.430;6.806;2023-03-01T00:58:37;9.85;;;6.93;;
46613;SDS011;32338;50.430;6.806;2023-03-01T01:01:07;8.02;;;5.88;;
46613;SDS011;32338;50.430;6.806;2023-03-01T01:03:42;8.45;;;5.63;;
46613;SDS011;32338;50.430;6.806;2023-03-01T01:06:12;7.20;;;6.28;;
46613;SDS011;32338;50.430;6.806;2023-03-01T01:08:39;8.35;;;5.75;;
46613;SDS011;32338;50.430;6.806;2023-03-01T01:11:08;9.13;;;5.70;;
46613;SDS011;32338;50.430;6.806;2023-03-01T01:13:35;7.82;;;6.07;;
46613;SDS011;32338;50.430;6.806;2023-03-01T01:16:04;11.30;;;7.28;;
46613;SDS011;32338;50.430;6.806;2023-03-01T01:18:32;11.48;;;6.90;;
46613;SDS011;32338;50.430;6.806;2023-03-01T01:21:02;13.75;;;7.32;;
46613;SDS011;32338;50.430;6.806;2023-03-01T01:23:30;14.43;;;7.97;;
46613;SDS011;32338;50.430;6.806;2023-03-01T01:25:56;12.35;;;7.07;;
46613;SDS011;32338;50.430;6.806;2023-03-01T01:28:23;9.02;;;6.00;;
46613;SDS011;32338;50.430;6.806;2023-03-01T01:30:50;9.88;;;6.82;;
46613;SDS011;32338;50.430;6.806;2023-03-01T01:33:18;9.07;;;6.10;;
46613;SDS011;32338;50.430;6.806;2023-03-01T01:35:44;10.45;;;6.28;;
46613;SDS011;32338;50.430;6.806;2023-03-01T01:38:11;9.30;;;6.28;;
46613;SDS011;32338;50.430;6.806;2023-03-01T01:40:42;13.95;;;7.65;;
46613;SDS011;32338;50.430;6.806;2023-03-01T01:43:12;7.60;;;6.35;;
46613;SDS011;32338;50.430;6.806;2023-03-01T01:45:45;7.75;;;6.22;;
46613;SDS011;32338;50.430;6.806;2023-03-01T01:48:13;8.25;;;5.97;;
46613;SDS011;32338;50.430;6.806;2023-03-01T01:50:44;12.60;;;6.72;;
46613;SDS011;32338;50.430;6.806;2023-03-01T01:53:14;8.05;;;6.03;;
46613;SDS011;32338;50.430;6.806;2023-03-01T01:55:43;11.48;;;6.85;;
46613;SDS011;32338;50.430;6.806;2023-03-01T01:58:14;10.27;;;6.63;;
46613;SDS011;32338;50.430;6.806;2023-03-01T02:00:43;8.63;;;7.35;;
46613;SDS011;32338;50.430;6.806;2023-03-01T02:03:11;9.77;;;6.35;;
46613;SDS011;32338;50.430;6.806;2023-03-01T02:05:46;7.03;;;5.65;;
46613;SDS011;32338;50.430;6.806;2023-03-01T02:08:17;11.23;;;7.20;;
46613;SDS011;32338;50.430;6.806;2023-03-01T02:10:45;16.52;;;8.10;;
46613;SDS011;32338;50.430;6.806;2023-03-01T02:13:12;16.60;;;8.68;;
46613;SDS011;32338;50.430;6.806;2023-03-01T02:15:39;13.85;;;7.95;;
46613;SDS011;32338;50.430;6.806;2023-03-01T02:18:09;11.50;;;7.25;;
46613;SDS011;32338;50.430;6.806;2023-03-01T02:20:40;14.13;;;8.95;;
46613;SDS011;32338;50.430;6.806;2023-03-01T02:23:17;19.08;;;8.50;;
46613;SDS011;32338;50.430;6.806;2023-03-01T02:25:46;11.50;;;7.88;;
46613;SDS011;32338;50.430;6.806;2023-03-01T02:31:02;12.52;;;6.78;;
46613;SDS011;32338;50.430;6.806;2023-03-01T02:33:48;11.48;;;6.80;;
46613;SDS011;32338;50.430;6.806;2023-03-01T02:36:15;12.05;;;7.57;;
46613;SDS011;32338;50.430;6.806;2023-03-01T02:38:45;13.52;;;7.90;;
46613;SDS011;32338;50.430;6.806;2023-03-01T02:41:13;16.85;;;7.90;;
46613;SDS011;32338;50.430;6.806;2023-03-01T02:43:43;15.00;;;8.40;;
46613;SDS011;32338;50.430;6.806;2023-03-01T02:46:13;15.65;;;9.00;;
46613;SDS011;32338;50.430;6.806;2023-03-01T02:48:42;11.10;;;8.00;;
46613;SDS011;32338;50.430;6.806;2023-03-01T02:51:13;13.32;;;8.15;;
46613;SDS011;32338;50.430;6.806;2023-03-01T02:53:55;15.27;;;9.15;;
46613;SDS011;32338;50.430;6.806;2023-03-01T02:56:29;15.63;;;7.75;;
46613;SDS011;32338;50.430;6.806;2023-03-01T02:58:57;13.32;;;7.72;;
46613;SDS011;32338;50.430;6.806;2023-03-01T03:01:26;13.05;;;7.53;;
46613;SDS011;32338;50.430;6.806;2023-03-01T03:04:01;12.20;;;8.05;;
46613;SDS011;32338;50.430;6.806;2023-03-01T03:06:29;13.95;;;8.27;;
46613;SDS011;32338;50.430;6.806;2023-03-01T03:08:56;18.33;;;9.77;;
46613;SDS011;32338;50.430;6.806;2023-03-01T03:11:22;17.77;;;9.43;;
46613;SDS011;32338;50.430;6.806;2023-03-01T03:13:49;13.32;;;9.00;;
46613;SDS011;32338;50.430;6.806;2023-03-01T03:16:18;15.25;;;9.05;;
46613;SDS011;32338;50.430;6.806;2023-03-01T03:18:45;15.85;;;9.02;;
46613;SDS011;32338;50.430;6.806;2023-03-01T03:21:12;15.65;;;8.95;;
46613;SDS011;32338;50.430;6.806;2023-03-01T03:23:39;13.10;;;8.95;;
46613;SDS011;32338;50.430;6.806;2023-03-01T03:26:06;17.30;;;9.35;;
46613;SDS011;32338;50.430;6.806;2023-03-01T03:28:33;12.93;;;8.57;;
46613;SDS011;32338;50.430;6.806;2023-03-01T03:31:05;13.90;;;7.97;;
46613;SDS011;32338;50.430;6.806;2023-03-01T03:33:33;12.13;;;8.10;;
46613;SDS011;32338;50.430;6.806;2023-03-01T03:36:00;12.75;;;7.78;;
46613;SDS011;32338;50.430;6.806;2023-03-01T03:38:27;13.95;;;8.73;;
46613;SDS011;32338;50.430;6.806;2023-03-01T03:40:59;15.85;;;8.30;;
46613;SDS011;32338;50.430;6.806;2023-03-01T03:43:27;12.57;;;8.15;;
46613;SDS011;32338;50.430;6.806;2023-03-01T03:45:55;12.65;;;8.65;;
46613;SDS011;32338;50.430;6.806;2023-03-01T03:48:23;15.20;;;8.80;;
46613;SDS011;32338;50.430;6.806;2023-03-01T03:50:53;16.23;;;9.50;;
46613;SDS011;32338;50.430;6.806;2023-03-01T03:53:21;14.82;;;8.40;;
46613;SDS011;32338;50.430;6.806;2023-03-01T03:55:50;15.70;;;9.05;;
46613;SDS011;32338;50.430;6.806;2023-03-01T03:58:18;14.93;;;8.98;;
46613;SDS011;32338;50.430;6.806;2023-03-01T04:00:46;14.30;;;7.88;;
46613;SDS011;32338;50.430;6.806;2023-03-01T04:03:15;13.93;;;9.10;;
46613;SDS011;32338;50.430;6.806;2023-03-01T04:05:43;15.00;;;9.20;;
46613;SDS011;32338;50.430;6.806;2023-03-01T04:08:12;15.98;;;9.23;;
46613;SDS011;32338;50.430;6.806;2023-03-01T04:10:40;20.60;;;9.82;;
46613;SDS011;32338;50.430;6.806;2023-03-01T04:13:09;17.65;;;10.30;;
46613;SDS011;32338;50.430;6.806;2023-03-01T04:15:38;17.30;;;9.18;;
46613;SDS011;32338;50.430;6.806;2023-03-01T04:18:05;24.75;;;11.20;;
46613;SDS011;32338;50.430;6.806;2023-03-01T04:20:33;12.80;;;9.15;;
46613;SDS011;32338;50.430;6.806;2023-03-01T04:23:01;20.63;;;10.65;;
46613;SDS011;32338;50.430;6.806;2023-03-01T04:25:37;17.33;;;9.50;;
46613;SDS011;32338;50.430;6.806;2023-03-01T04:28:05;19.10;;;10.63;;
46613;SDS011;32338;50.430;6.806;2023-03-01T04:30:31;16.35;;;10.05;;
46613;SDS011;32338;50.430;6.806;2023-03-01T04:33:01;20.95;;;10.98;;
46613;SDS011;32338;50.430;6.806;2023-03-01T04:35:28;21.25;;;10.20;;
46613;SDS011;32338;50.430;6.806;2023-03-01T04:37:55;18.15;;;9.77;;
46613;SDS011;32338;50.430;6.806;2023-03-01T04:40:22;13.65;;;8.80;;
46613;SDS011;32338;50.430;6.806;2023-03-01T04:42:50;17.60;;;9.27;;
46613;SDS011;32338;50.430;6.806;2023-03-01T04:45:16;19.38;;;9.95;;
46613;SDS011;32338;50.430;6.806;2023-03-01T04:47:43;15.32;;;9.35;;
46613;SDS011;32338;50.430;6.806;2023-03-01T04:50:12;16.10;;;8.90;;
46613;SDS011;32338;50.430;6.806;2023-03-01T04:52:40;14.35;;;9.38;;
46613;SDS011;32338;50.430;6.806;2023-03-01T04:55:07;16.65;;;9.07;;
46613;SDS011;32338;50.430;6.806;2023-03-01T04:57:35;16.80;;;10.40;;
46613;SDS011;32338;50.430;6.806;2023-03-01T05:00:03;14.77;;;9.15;;
46613;SDS011;32338;50.430;6.806;2023-03-01T05:02:45;18.80;;;11.07;;
46613;SDS011;32338;50.430;6.806;2023-03-01T05:05:13;25.67;;;11.30;;
46613;SDS011;32338;50.430;6.806;2023-03-01T05:07:40;18.52;;;9.90;;
46613;SDS011;32338;50.430;6.806;2023-03-01T05:10:07;16.08;;;10.80;;
46613;SDS011;32338;50.430;6.806;2023-03-01T05:12:34;21.08;;;10.90;;
46613;SDS011;32338;50.430;6.806;2023-03-01T05:15:04;19.27;;;10.43;;
46613;SDS011;32338;50.430;6.806;2023-03-01T05:17:32;19.77;;;10.77;;
46613;SDS011;32338;50.430;6.806;2023-03-01T05:19:59;21.00;;;10.93;;
46613;SDS011;32338;50.430;6.806;2023-03-01T05:22:26;22.63;;;11.65;;
46613;SDS011;32338;50.430;6.806;2023-03-01T05:24:52;13.45;;;8.88;;
46613;SDS011;32338;50.430;6.806;2023-03-01T05:27:20;17.23;;;10.88;;
46613;SDS011;32338;50.430;6.806;2023-03-01T05:29:47;23.13;;;11.48;;
46613;SDS011;32338;50.430;6.806;2023-03-01T05:32:15;19.25;;;11.25;;
46613;SDS011;32338;50.430;6.806;2023-03-01T05:34:42;23.75;;;12.45;;
46613;SDS011;32338;50.430;6.806;2023-03-01T05:37:09;24.08;;;11.70;;
46613;SDS011;32338;50.430;6.806;2023-03-01T05:39:35;22.33;;;12.10;;
46613;SDS011;32338;50.430;6.806;2023-03-01T05:42:02;21.30;;;12.05;;
46613;SDS011;32338;50.430;6.806;2023-03-01T05:44:29;22.98;;;11.55;;
46613;SDS011;32338;50.430;6.806;2023-03-01T05:46:56;18.67;;;10.40;;
46613;SDS011;32338;50.430;6.806;2023-03-01T05:49:24;25.13;;;12.38;;
46613;SDS011;32338;50.430;6.806;2023-03-01T05:51:51;26.17;;;13.30;;
46613;SDS011;32338;50.430;6.806;2023-03-01T05:54:20;24.50;;;12.23;;
46613;SDS011;32338;50.430;6.806;2023-03-01T05:56:47;23.80;;;11.65;;
46613;SDS011;32338;50.430;6.806;2023-03-01T05:59:14;19.35;;;10.93;;
46613;SDS011;32338;50.430;6.806;2023-03-01T06:01:41;21.98;;;11.63;;
46613;SDS011;32338;50.430;6.806;2023-03-01T06:04:08;20.88;;;12.23;;
46613;SDS011;32338;50.430;6.806;2023-03-01T06:06:36;25.38;;;12.82;;
46613;SDS011;32338;50.430;6.806;2023-03-01T06:09:03;24.45;;;11.82;;
46613;SDS011;32338;50.430;6.806;2023-03-01T06:11:33;27.95;;;13.50;;
46613;SDS011;32338;50.430;6.806;2023-03-01T06:14:00;29.05;;;15.32;;
46613;SDS011;32338;50.430;6.806;2023-03-01T06:16:26;28.35;;;14.05;;
46613;SDS011;32338;50.430;6.806;2023-03-01T06:18:53;29.15;;;13.90;;
46613;SDS011;32338;50.430;6.806;2023-03-01T06:21:20;22.50;;;12.25;;
46613;SDS011;32338;50.430;6.806;2023-03-01T06:23:48;24.65;;;11.70;;
46613;SDS011;32338;50.430;6.806;2023-03-01T06:26:14;19.50;;;11.18;;
46613;SDS011;32338;50.430;6.806;2023-03-01T06:28:41;26.40;;;12.25;;
46613;SDS011;32338;50.430;6.806;2023-03-01T06:31:11;25.67;;;13.50;;
46613;SDS011;32338;50.430;6.806;2023-03-01T06:33:37;23.85;;;12.32;;
46613;SDS011;32338;50.430;6.806;2023-03-01T06:36:04;25.60;;;13.73;;
46613;SDS011;32338;50.430;6.806;2023-03-01T06:38:32;22.05;;;11.98;;
46613;SDS011;32338;50.430;6.806;2023-03-01T06:41:00;28.05;;;13.75;;
46613;SDS011;32338;50.430;6.806;2023-03-01T06:43:27;26.83;;;12.60;;
46613;SDS011;32338;50.430;6.806;2023-03-01T06:45:54;24.88;;;13.25;;
46613;SDS011;32338;50.430;6.806;2023-03-01T06:48:21;26.27;;;13.25;;
46613;SDS011;32338;50.430;6.806;2023-03-01T06:50:48;23.90;;;12.63;;
46613;SDS011;32338;50.430;6.806;2023-03-01T06:53:15;23.58;;;12.80;;
46613;SDS011;32338;50.430;6.806;2023-03-01T06:55:41;25.60;;;13.18;;
46613;SDS011;32338;50.430;6.806;2023-03-01T06:58:11;25.15;;;13.38;;
46613;SDS011;32338;50.430;6.806;2023-03-01T07:00:38;22.52;;;12.45;;
46613;SDS011;32338;50.430;6.806;2023-03-01T07:03:05;26.13;;;13.10;;
46613;SDS011;32338;50.430;6.806;2023-03-01T07:05:33;24.45;;;12.70;;
46613;SDS011;32338;50.430;6.806;2023-03-01T07:08:00;27.17;;;13.82;;
46613;SDS011;32338;50.430;6.806;2023-03-01T07:10:27;28.27;;;13.77;;
46613;SDS011;32338;50.430;6.806;2023-03-01T07:12:54;28.10;;;13.80;;
46613;SDS011;32338;50.430;6.806;2023-03-01T07:15:23;26.55;;;12.77;;
46613;SDS011;32338;50.430;6.806;2023-03-01T07:17:51;27.15;;;12.85;;
46613;SDS011;32338;50.430;6.806;2023-03-01T07:20:18;27.10;;;14.05;;
46613;SDS011;32338;50.430;6.806;2023-03-01T07:22:47;36.40;;;14.25;;
46613;SDS011;32338;50.430;6.806;2023-03-01T07:25:14;27.83;;;14.85;;
46613;SDS011;32338;50.430;6.806;2023-03-01T07:27:41;26.95;;;13.75;;
46613;SDS011;32338;50.430;6.806;2023-03-01T07:30:08;29.75;;;14.27;;
46613;SDS011;32338;50.430;6.806;2023-03-01T07:32:37;25.67;;;14.10;;
46613;SDS011;32338;50.430;6.806;2023-03-01T07:35:04;31.60;;;14.35;;
46613;SDS011;32338;50.430;6.806;2023-03-01T07:37:32;31.17;;;14.27;;
46613;SDS011;32338;50.430;6.806;2023-03-01T07:39:58;29.48;;;14.98;;
46613;SDS011;32338;50.430;6.806;2023-03-01T07:42:25;33.90;;;17.23;;
46613;SDS011;32338;50.430;6.806;2023-03-01T07:44:52;29.55;;;14.73;;
46613;SDS011;32338;50.430;6.806;2023-03-01T07:47:19;31.65;;;15.05;;
46613;SDS011;32338;50.430;6.806;2023-03-01T07:49:47;38.10;;;16.75;;
46613;SDS011;32338;50.430;6.806;2023-03-01T07:52:13;31.85;;;16.38;;
46613;SDS011;32338;50.430;6.806;2023-03-01T07:54:42;33.33;;;16.17;;
46613;SDS011;32338;50.430;6.806;2023-03-01T07:57:10;33.58;;;14.88;;
46613;SDS011;32338;50.430;6.806;2023-03-01T07:59:37;38.58;;;16.70;;
46613;SDS011;32338;50.430;6.806;2023-03-01T08:02:04;34.65;;;16.38;;
46613;SDS011;32338;50.430;6.806;2023-03-01T08:04:31;31.20;;;15.77;;
46613;SDS011;32338;50.430;6.806;2023-03-01T08:06:59;33.70;;;16.95;;
46613;SDS011;32338;50.430;6.806;2023-03-01T08:09:26;30.10;;;16.88;;
46613;SDS011;32338;50.430;6.806;2023-03-01T08:11:53;33.97;;;16.52;;
46613;SDS011;32338;50.430;6.806;2023-03-01T08:14:20;30.45;;;16.50;;
46613;SDS011;32338;50.430;6.806;2023-03-01T08:16:48;35.30;;;17.10;;
46613;SDS011;32338;50.430;6.806;2023-03-01T08:19:15;35.17;;;17.25;;
46613;SDS011;32338;50.430;6.806;2023-03-01T08:21:42;34.88;;;17.63;;
46613;SDS011;32338;50.430;6.806;2023-03-01T08:24:10;31.38;;;17.15;;
46613;SDS011;32338;50.430;6.806;2023-03-01T08:26:37;35.17;;;18.45;;
46613;SDS011;32338;50.430;6.806;2023-03-01T08:29:03;37.47;;;18.13;;
46613;SDS011;32338;50.430;6.806;2023-03-01T08:31:31;33.80;;;17.30;;
46613;SDS011;32338;50.430;6.806;2023-03-01T08:34:02;36.30;;;17.45;;
46613;SDS011;32338;50.430;6.806;2023-03-01T08:36:31;35.25;;;17.50;;
46613;SDS011;32338;50.430;6.806;2023-03-01T08:39:00;32.95;;;16.92;;
46613;SDS011;32338;50.430;6.806;2023-03-01T08:41:28;33.28;;;17.02;;
46613;SDS011;32338;50.430;6.806;2023-03-01T08:43:55;34.65;;;16.75;;
46613;SDS011;32338;50.430;6.806;2023-03-01T08:46:24;36.50;;;17.08;;
46613;SDS011;32338;50.430;6.806;2023-03-01T08:48:51;25.90;;;15.35;;
46613;SDS011;32338;50.430;6.806;2023-03-01T08:51:19;32.47;;;16.30;;
46613;SDS011;32338;50.430;6.806;2023-03-01T08:53:47;35.17;;;16.83;;
46613;SDS011;32338;50.430;6.806;2023-03-01T08:56:14;28.58;;;15.15;;
46613;SDS011;32338;50.430;6.806;2023-03-01T08:58:44;28.35;;;15.48;;
46613;SDS011;32338;50.430;6.806;2023-03-01T09:01:12;29.30;;;15.95;;
46613;SDS011;32338;50.430;6.806;2023-03-01T09:03:40;28.40;;;15.80;;
46613;SDS011;32338;50.430;6.806;2023-03-01T09:06:07;29.63;;;15.20;;
46613;SDS011;32338;50.430;6.806;2023-03-01T09:08:34;23.83;;;13.80;;
46613;SDS011;32338;50.430;6.806;2023-03-01T09:11:01;29.08;;;14.73;;
46613;SDS011;32338;50.430;6.806;2023-03-01T09:13:28;29.98;;;14.98;;
46613;SDS011;32338;50.430;6.806;2023-03-01T09:15:57;26.58;;;14.75;;
46613;SDS011;32338;50.430;6.806;2023-03-01T09:18:24;29.80;;;14.70;;
46613;SDS011;32338;50.430;6.806;2023-03-01T09:20:51;25.70;;;14.95;;
46613;SDS011;32338;50.430;6.806;2023-03-01T09:23:19;24.02;;;13.93;;
46613;SDS011;32338;50.430;6.806;2023-03-01T09:25:46;21.63;;;13.60;;
46613;SDS011;32338;50.430;6.806;2023-03-01T09:28:13;22.63;;;13.38;;
46613;SDS011;32338;50.430;6.806;2023-03-01T09:30:39;23.60;;;14.23;;
46613;SDS011;32338;50.430;6.806;2023-03-01T09:33:07;21.73;;;13.13;;
46613;SDS011;32338;50.430;6.806;2023-03-01T09:35:39;22.65;;;13.73;;
46613;SDS011;32338;50.430;6.806;2023-03-01T09:38:11;26.55;;;15.48;;
46613;SDS011;32338;50.430;6.806;2023-03-01T09:40:41;21.48;;;13.38;;
46613;SDS011;32338;50.430;6.806;2023-03-01T09:43:13;27.50;;;14.20;;
46613;SDS011;32338;50.430;6.806;2023-03-01T09:45:45;24.80;;;13.52;;
46613;SDS011;32338;50.430;6.806;2023-03-01T09:48:17;22.25;;;13.63;;
46613;SDS011;32338;50.430;6.806;2023-03-01T09:50:47;26.40;;;13.90;;
46613;SDS011;32338;50.430;6.806;2023-03-01T09:53:15;22.80;;;12.45;;
46613;SDS011;32338;50.430;6.806;2023-03-01T09:55:43;19.13;;;12.32;;
46613;SDS011;32338;50.430;6.806;2023-03-01T10:01:09;22.67;;;12.88;;
46613;SDS011;32338;50.430;6.806;2023-03-01T10:03:53;22.73;;;12.60;;
46613;SDS011;32338;50.430;6.806;2023-03-01T10:06:36;19.17;;;12.30;;
46613;SDS011;32338;50.430;6.806;2023-03-01T10:09:04;26.98;;;12.98;;
46613;SDS011;32338;50.430;6.806;2023-03-01T10:11:37;21.48;;;12.98;;
46613;SDS011;32338;50.430;6.806;2023-03-01T10:14:05;20.55;;;13.05;;
46613;SDS011;32338;50.430;6.806;2023-03-01T10:16:43;25.45;;;13.05;;
46613;SDS011;32338;50.430;6.806;2023-03-01T10:19:17;23.67;;;13.38;;
46613;SDS011;32338;50.430;6.806;2023-03-01T10:21:50;19.58;;;12.40;;
46613;SDS011;32338;50.430;6.806;2023-03-01T10:24:18;22.60;;;13.20;;
46613;SDS011;32338;50.430;6.806;2023-03-01T10:26:53;23.27;;;13.20;;
46613;SDS011;32338;50.430;6.806;2023-03-01T10:29:23;20.45;;;12.40;;
46613;SDS011;32338;50.430;6.806;2023-03-01T10:31:53;20.73;;;12.30;;
46613;SDS011;32338;50.430;6.806;2023-03-01T10:34:25;23.40;;;13.48;;
46613;SDS011;32338;50.430;6.806;2023-03-01T10:36:55;20.13;;;13.20;;
46613;SDS011;32338;50.430;6.806;2023-03-01T10:39:24;21.08;;;13.52;;
46613;SDS011;32338;50.430;6.806;2023-03-01T10:41:53;20.90;;;12.65;;
46613;SDS011;32338;50.430;6.806;2023-03-01T10:44:39;19.92;;;12.52;;
46613;SDS011;32338;50.430;6.806;2023-03-01T10:47:18;21.70;;;13.40;;
46613;SDS011;32338;50.430;6.806;2023-03-01T10:49:55;20.40;;;12.20;;
46613;SDS011;32338;50.430;6.806;2023-03-01T10:52:24;16.98;;;11.75;;
46613;SDS011;32338;50.430;6.806;2023-03-01T10:54:54;25.48;;;12.80;;
46613;SDS011;32338;50.430;6.806;2023-03-01T10:57:32;19.00;;;12.75;;
46613;SDS011;32338;50.430;6.806;2023-03-01T11:00:19;19.98;;;12.82;;
46613;SDS011;32338;50.430;6.806;2023-03-01T11:02:49;23.25;;;12.70;;
46613;SDS011;32338;50.430;6.806;2023-03-01T11:05:20;22.63;;;12.50;;
46613;SDS011;32338;50.430;6.806;2023-03-01T11:07:50;19.45;;;13.25;;
46613;SDS011;32338;50.430;6.806;2023-03-01T11:10:19;20.50;;;12.10;;
46613;SDS011;32338;50.430;6.806;2023-03-01T11:12:48;23.00;;;13.25;;
46613;SDS011;32338;50.430;6.806;2023-03-01T11:15:20;20.50;;;12.68;;
46613;SDS011;32338;50.430;6.806;2023-03-01T11:17:49;21.42;;;12.90;;
46613;SDS011;32338;50.430;6.806;2023-03-01T11:20:19;19.50;;;11.85;;
46613;SDS011;32338;50.430;6.806;2023-03-01T11:22:54;24.48;;;12.65;;
46613;SDS011;32338;50.430;6.806;2023-03-01T11:25:24;20.05;;;12.68;;
46613;SDS011;32338;50.430;6.806;2023-03-01T11:27:52;17.15;;;11.77;;
46613;SDS011;32338;50.430;6.806;2023-03-01T11:30:20;19.77;;;12.98;;
46613;SDS011;32338;50.430;6.806;2023-03-01T11:32:52;17.48;;;12.63;;
46613;SDS011;32338;50.430;6.806;2023-03-01T11:35:30;19.58;;;12.05;;
46613;SDS011;32338;50.430;6.806;2023-03-01T11:38:03;19.13;;;12.02;;
46613;SDS011;32338;50.430;6.806;2023-03-01T11:40:39;19.63;;;12.30;;
46613;SDS011;32338;50.430;6.806;2023-03-01T11:43:12;19.40;;;12.50;;
46613;SDS011;32338;50.430;6.806;2023-03-01T11:45:55;19.27;;;12.25;;
46613;SDS011;32338;50.430;6.806;2023-03-01T11:48:38;19.58;;;11.15;;
46613;SDS011;32338;50.430;6.806;2023-03-01T11:51:17;17.13;;;11.95;;
46613;SDS011;32338;50.430;6.806;2023-03-01T11:53:52;17.17;;;11.77;;
46613;SDS011;32338;50.430;6.806;2023-03-01T11:56:28;21.58;;;13.05;;
46613;SDS011;32338;50.430;6.806;2023-03-01T11:59:06;18.67;;;12.70;;
46613;SDS011;32338;50.430;6.806;2023-03-01T12:01:49;18.60;;;12.65;;
46613;SDS011;32338;50.430;6.806;2023-03-01T12:07:31;20.63;;;13.10;;
46613;SDS011;32338;50.430;6.806;2023-03-01T12:10:14;21.42;;;12.65;;
46613;SDS011;32338;50.430;6.806;2023-03-01T12:13:02;18.35;;;12.23;;
46613;SDS011;32338;50.430;6.806;2023-03-01T12:15:45;21.05;;;13.20;;
46613;SDS011;32338;50.430;6.806;2023-03-01T12:18:36;22.00;;;13.52;;
46613;SDS011;32338;50.430;6.806;2023-03-01T12:21:27;23.05;;;12.73;;
46613;SDS011;32338;50.430;6.806;2023-03-01T12:27:00;20.90;;;13.57;;
46613;SDS011;32338;50.430;6.806;2023-03-01T12:29:41;23.27;;;13.75;;
46613;SDS011;32338;50.430;6.806;2023-03-01T12:32:21;22.38;;;13.15;;
46613;SDS011;32338;50.430;6.806;2023-03-01T12:35:04;24.42;;;13.18;;
46613;SDS011;32338;50.430;6.806;2023-03-01T12:37:51;16.55;;;12.10;;
46613;SDS011;32338;50.430;6.806;2023-03-01T12:43:22;19.50;;;12.40;;
46613;SDS011;32338;50.430;6.806;2023-03-01T12:46:04;19.27;;;12.85;;
46613;SDS011;32338;50.430;6.806;2023-03-01T12:48:40;17.65;;;11.95;;
46613;SDS011;32338;50.430;6.806;2023-03-01T12:51:14;22.92;;;12.43;;
46613;SDS011;32338;50.430;6.806;2023-03-01T12:53:44;21.45;;;12.32;;
46613;SDS011;32338;50.430;6.806;2023-03-01T12:56:15;19.95;;;12.38;;
46613;SDS011;32338;50.430;6.806;2023-03-01T12:58:46;20.05;;;12.40;;
46613;SDS011;32338;50.430;6.806;2023-03-01T13:01:22;19.98;;;12.48;;
46613;SDS011;32338;50.430;6.806;2023-03-01T13:04:01;18.75;;;13.38;;
46613;SDS011;32338;50.430;6.806;2023-03-01T13:06:38;20.42;;;12.77;;
46613;SDS011;32338;50.430;6.806;2023-03-01T13:09:14;20.23;;;11.93;;
46613;SDS011;32338;50.430;6.806;2023-03-01T13:11:48;19.40;;;12.93;;
46613;SDS011;32338;50.430;6.806;2023-03-01T13:20:00;21.35;;;12.85;;
46613;SDS011;32338;50.430;6.806;2023-03-01T13:22:29;20.73;;;12.88;;
46613;SDS011;32338;50.430;6.806;2023-03-01T13:25:03;22.15;;;12.48;;
46613;SDS011;32338;50.430;6.806;2023-03-01T13:27:40;18.85;;;11.73;;
46613;SDS011;32338;50.430;6.806;2023-03-01T13:30:37;23.95;;;13.38;;
46613;SDS011;32338;50.430;6.806;2023-03-01T13:36:05;17.60;;;13.15;;
46613;SDS011;32338;50.430;6.806;2023-03-01T13:38:37;21.02;;;12.88;;
46613;SDS011;32338;50.430;6.806;2023-03-01T13:41:12;16.85;;;11.95;;
46613;SDS011;32338;50.430;6.806;2023-03-01T13:43:41;19.38;;;12.32;;
46613;SDS011;32338;50.430;6.806;2023-03-01T13:46:11;21.98;;;11.75;;
46613;SDS011;32338;50.430;6.806;2023-03-01T13:48:44;21.98;;;13.25;;
46613;SDS011;32338;50.430;6.806;2023-03-01T13:51:15;21.15;;;12.95;;
46613;SDS011;32338;50.430;6.806;2023-03-01T13:53:48;18.25;;;11.73;;
46613;SDS011;32338;50.430;6.806;2023-03-01T13:56:16;18.40;;;11.65;;
46613;SDS011;32338;50.430;6.806;2023-03-01T13:58:52;20.10;;;11.52;;
46613;SDS011;32338;50.430;6.806;2023-03-01T14:01:21;17.13;;;11.38;;
46613;SDS011;32338;50.430;6.806;2023-03-01T14:03:50;18.60;;;11.65;;
46613;SDS011;32338;50.430;6.806;2023-03-01T14:06:19;14.90;;;10.73;;
46613;SDS011;32338;50.430;6.806;2023-03-01T14:08:48;16.85;;;10.75;;
46613;SDS011;32338;50.430;6.806;2023-03-01T14:11:22;20.73;;;10.82;;
46613;SDS011;32338;50.430;6.806;2023-03-01T14:17:03;16.85;;;10.15;;
46613;SDS011;32338;50.430;6.806;2023-03-01T14:19:42;16.75;;;10.18;;
46613;SDS011;32338;50.430;6.806;2023-03-01T14:22:13;13.32;;;8.38;;
46613;SDS011;32338;50.430;6.806;2023-03-01T14:24:47;15.48;;;9.35;;
46613;SDS011;32338;50.430;6.806;2023-03-01T14:27:15;14.75;;;9.07;;
46613;SDS011;32338;50.430;6.806;2023-03-01T14:29:45;13.80;;;8.55;;
46613;SDS011;32338;50.430;6.806;2023-03-01T14:32:21;12.75;;;8.75;;
46613;SDS011;32338;50.430;6.806;2023-03-01T14:34:50;11.95;;;8.32;;
46613;SDS011;32338;50.430;6.806;2023-03-01T14:37:18;12.45;;;7.90;;
46613;SDS011;32338;50.430;6.806;2023-03-01T14:39:47;11.25;;;8.18;;
46613;SDS011;32338;50.430;6.806;2023-03-01T14:42:14;9.05;;;7.90;;
46613;SDS011;32338;50.430;6.806;2023-03-01T14:44:42;14.23;;;8.73;;
46613;SDS011;32338;50.430;6.806;2023-03-01T14:47:12;10.90;;;8.25;;
46613;SDS011;32338;50.430;6.806;2023-03-01T14:49:42;12.15;;;7.63;;
46613;SDS011;32338;50.430;6.806;2023-03-01T14:52:17;14.98;;;8.50;;
46613;SDS011;32338;50.430;6.806;2023-03-01T14:54:46;9.88;;;7.72;;
46613;SDS011;32338;50.430;6.806;2023-03-01T14:57:17;13.15;;;8.20;;
46613;SDS011;32338;50.430;6.806;2023-03-01T14:59:49;10.25;;;7.95;;
46613;SDS011;32338;50.430;6.806;2023-03-01T15:02:19;11.80;;;7.75;;
46613;SDS011;32338;50.430;6.806;2023-03-01T15:04:49;14.82;;;9.38;;
46613;SDS011;32338;50.430;6.806;2023-03-01T15:07:18;13.85;;;8.20;;
46613;SDS011;32338;50.430;6.806;2023-03-01T15:09:45;16.00;;;8.82;;
46613;SDS011;32338;50.430;6.806;2023-03-01T15:12:32;13.70;;;8.73;;